Scottsville, Texas
Current Conditions -  °F | °C
As of 8:15 PM on Friday 19 Dec 2014 (Local Time) from KASL Reporting Station
Overcast Overcast  
Wind Chill: 48°   Ceiling: 600
Heat Index: 48°   Visibility: 7mi
Dew Point: 46°   Wind: 3mph
Humidity: 91%   Direction: 20°NNE
Pressure: 30.19"   Gusts: NA
Location:  32.54°N, 94.24°W
Report Text: KASL 200215Z AUTO 02003KT 7SM OVC006 09/08 A3019 RMK AO1 T00900076
Loading
Personal Weather Stations






























Interactive Weather Map New forecast layout! Learn more

10-Day Weather Forecast

Advertisements
Track Severe Weather on mobile